sensor_id;sensor_type;location;lat;lon;timestamp;P1;durP1;ratioP1;P2;durP2;ratioP2
61471;SDS011;47337;54.068;12.114;2022-08-25T00:01:46;19.48;;;10.80;;
61471;SDS011;47337;54.068;12.114;2022-08-25T00:04:17;13.68;;;9.50;;
61471;SDS011;47337;54.068;12.114;2022-08-25T00:06:44;14.07;;;9.55;;
61471;SDS011;47337;54.068;12.114;2022-08-25T00:09:14;11.85;;;9.30;;
61471;SDS011;47337;54.068;12.114;2022-08-25T00:11:41;11.82;;;9.27;;
61471;SDS011;47337;54.068;12.114;2022-08-25T00:14:13;14.48;;;9.65;;
61471;SDS011;47337;54.068;12.114;2022-08-25T00:16:41;18.10;;;9.88;;
61471;SDS011;47337;54.068;12.114;2022-08-25T00:19:09;15.70;;;10.38;;
61471;SDS011;47337;54.068;12.114;2022-08-25T00:21:38;16.58;;;9.73;;
61471;SDS011;47337;54.068;12.114;2022-08-25T00:24:05;15.98;;;10.95;;
61471;SDS011;47337;54.068;12.114;2022-08-25T00:26:37;13.98;;;9.25;;
61471;SDS011;47337;54.068;12.114;2022-08-25T00:29:09;15.48;;;10.40;;
61471;SDS011;47337;54.068;12.114;2022-08-25T00:31:35;14.52;;;10.80;;
61471;SDS011;47337;54.068;12.114;2022-08-25T00:34:01;17.58;;;10.80;;
61471;SDS011;47337;54.068;12.114;2022-08-25T00:36:27;13.95;;;10.25;;
61471;SDS011;47337;54.068;12.114;2022-08-25T00:38:53;16.70;;;10.55;;
61471;SDS011;47337;54.068;12.114;2022-08-25T00:41:19;14.90;;;11.50;;
61471;SDS011;47337;54.068;12.114;2022-08-25T00:43:49;16.73;;;10.00;;
61471;SDS011;47337;54.068;12.114;2022-08-25T00:46:19;15.32;;;10.68;;
61471;SDS011;47337;54.068;12.114;2022-08-25T00:48:53;14.02;;;10.38;;
61471;SDS011;47337;54.068;12.114;2022-08-25T00:51:33;19.55;;;10.55;;
61471;SDS011;47337;54.068;12.114;2022-08-25T00:54:03;18.30;;;10.98;;
61471;SDS011;47337;54.068;12.114;2022-08-25T00:56:30;16.27;;;11.05;;
61471;SDS011;47337;54.068;12.114;2022-08-25T00:58:56;17.23;;;10.52;;
61471;SDS011;47337;54.068;12.114;2022-08-25T01:01:23;21.75;;;11.07;;
61471;SDS011;47337;54.068;12.114;2022-08-25T01:03:49;15.43;;;11.02;;
61471;SDS011;47337;54.068;12.114;2022-08-25T01:06:15;16.70;;;11.00;;
61471;SDS011;47337;54.068;12.114;2022-08-25T01:08:41;14.38;;;10.38;;
61471;SDS011;47337;54.068;12.114;2022-08-25T01:11:08;16.85;;;10.75;;
61471;SDS011;47337;54.068;12.114;2022-08-25T01:16:06;17.58;;;11.30;;
61471;SDS011;47337;54.068;12.114;2022-08-25T01:18:44;16.88;;;11.07;;
61471;SDS011;47337;54.068;12.114;2022-08-25T01:21:17;15.35;;;11.05;;
61471;SDS011;47337;54.068;12.114;2022-08-25T01:23:44;18.23;;;11.02;;
61471;SDS011;47337;54.068;12.114;2022-08-25T01:26:15;21.08;;;11.35;;
61471;SDS011;47337;54.068;12.114;2022-08-25T01:28:45;17.52;;;12.00;;
61471;SDS011;47337;54.068;12.114;2022-08-25T01:31:31;16.50;;;11.75;;
61471;SDS011;47337;54.068;12.114;2022-08-25T01:33:58;21.73;;;12.65;;
61471;SDS011;47337;54.068;12.114;2022-08-25T01:36:24;17.42;;;11.05;;
61471;SDS011;47337;54.068;12.114;2022-08-25T01:38:51;17.83;;;11.35;;
61471;SDS011;47337;54.068;12.114;2022-08-25T01:41:25;15.82;;;11.25;;
61471;SDS011;47337;54.068;12.114;2022-08-25T01:43:54;19.45;;;12.35;;
61471;SDS011;47337;54.068;12.114;2022-08-25T01:46:19;18.45;;;10.73;;
61471;SDS011;47337;54.068;12.114;2022-08-25T01:48:45;21.15;;;12.38;;
61471;SDS011;47337;54.068;12.114;2022-08-25T01:51:13;18.77;;;12.65;;
61471;SDS011;47337;54.068;12.114;2022-08-25T01:53:40;20.63;;;12.70;;
61471;SDS011;47337;54.068;12.114;2022-08-25T01:56:09;19.00;;;12.23;;
61471;SDS011;47337;54.068;12.114;2022-08-25T01:58:39;19.65;;;12.13;;
61471;SDS011;47337;54.068;12.114;2022-08-25T02:01:08;19.95;;;12.60;;
61471;SDS011;47337;54.068;12.114;2022-08-25T02:03:39;18.85;;;12.20;;
61471;SDS011;47337;54.068;12.114;2022-08-25T02:06:06;19.02;;;12.55;;
61471;SDS011;47337;54.068;12.114;2022-08-25T02:08:33;20.23;;;13.25;;
61471;SDS011;47337;54.068;12.114;2022-08-25T02:11:02;19.85;;;12.35;;
61471;SDS011;47337;54.068;12.114;2022-08-25T02:13:28;18.67;;;12.48;;
61471;SDS011;47337;54.068;12.114;2022-08-25T02:15:54;18.58;;;12.65;;
61471;SDS011;47337;54.068;12.114;2022-08-25T02:18:24;22.83;;;13.00;;
61471;SDS011;47337;54.068;12.114;2022-08-25T02:20:50;18.60;;;12.05;;
61471;SDS011;47337;54.068;12.114;2022-08-25T02:23:15;15.82;;;11.40;;
61471;SDS011;47337;54.068;12.114;2022-08-25T02:25:41;19.77;;;12.18;;
61471;SDS011;47337;54.068;12.114;2022-08-25T02:28:08;27.90;;;13.10;;
61471;SDS011;47337;54.068;12.114;2022-08-25T02:30:35;19.60;;;12.52;;
61471;SDS011;47337;54.068;12.114;2022-08-25T02:33:01;17.65;;;11.52;;
61471;SDS011;47337;54.068;12.114;2022-08-25T02:35:27;23.52;;;12.30;;
61471;SDS011;47337;54.068;12.114;2022-08-25T02:37:53;18.17;;;11.77;;
61471;SDS011;47337;54.068;12.114;2022-08-25T02:40:21;17.35;;;11.10;;
61471;SDS011;47337;54.068;12.114;2022-08-25T02:42:49;19.35;;;10.80;;
61471;SDS011;47337;54.068;12.114;2022-08-25T02:45:15;13.82;;;10.82;;
61471;SDS011;47337;54.068;12.114;2022-08-25T02:47:42;15.13;;;10.85;;
61471;SDS011;47337;54.068;12.114;2022-08-25T02:50:09;15.90;;;10.57;;
61471;SDS011;47337;54.068;12.114;2022-08-25T02:52:38;17.75;;;10.75;;
61471;SDS011;47337;54.068;12.114;2022-08-25T02:55:07;15.82;;;10.55;;
61471;SDS011;47337;54.068;12.114;2022-08-25T02:57:34;17.58;;;11.02;;
61471;SDS011;47337;54.068;12.114;2022-08-25T02:59:59;14.80;;;10.00;;
61471;SDS011;47337;54.068;12.114;2022-08-25T03:02:25;15.38;;;9.93;;
61471;SDS011;47337;54.068;12.114;2022-08-25T03:04:53;17.85;;;10.02;;
61471;SDS011;47337;54.068;12.114;2022-08-25T03:07:19;18.15;;;10.80;;
61471;SDS011;47337;54.068;12.114;2022-08-25T03:09:46;14.02;;;10.13;;
61471;SDS011;47337;54.068;12.114;2022-08-25T03:12:11;16.52;;;10.45;;
61471;SDS011;47337;54.068;12.114;2022-08-25T03:14:38;16.20;;;10.85;;
61471;SDS011;47337;54.068;12.114;2022-08-25T03:17:07;20.70;;;9.93;;
61471;SDS011;47337;54.068;12.114;2022-08-25T03:19:33;16.83;;;11.07;;
61471;SDS011;47337;54.068;12.114;2022-08-25T03:21:59;18.70;;;10.55;;
61471;SDS011;47337;54.068;12.114;2022-08-25T03:24:27;14.25;;;10.02;;
61471;SDS011;47337;54.068;12.114;2022-08-25T03:26:52;17.35;;;10.30;;
61471;SDS011;47337;54.068;12.114;2022-08-25T03:29:23;16.95;;;10.63;;
61471;SDS011;47337;54.068;12.114;2022-08-25T03:31:56;13.68;;;10.38;;
61471;SDS011;47337;54.068;12.114;2022-08-25T03:34:27;15.32;;;10.13;;
61471;SDS011;47337;54.068;12.114;2022-08-25T03:36:54;17.05;;;10.05;;
61471;SDS011;47337;54.068;12.114;2022-08-25T03:39:22;11.57;;;9.20;;
61471;SDS011;47337;54.068;12.114;2022-08-25T03:41:49;13.20;;;8.90;;
61471;SDS011;47337;54.068;12.114;2022-08-25T03:44:15;13.85;;;9.50;;
61471;SDS011;47337;54.068;12.114;2022-08-25T03:46:43;15.18;;;9.05;;
61471;SDS011;47337;54.068;12.114;2022-08-25T03:49:15;13.52;;;9.30;;
61471;SDS011;47337;54.068;12.114;2022-08-25T03:51:44;15.68;;;9.25;;
61471;SDS011;47337;54.068;12.114;2022-08-25T03:54:14;15.18;;;10.07;;
61471;SDS011;47337;54.068;12.114;2022-08-25T03:56:41;16.45;;;10.60;;
61471;SDS011;47337;54.068;12.114;2022-08-25T03:59:07;19.25;;;10.73;;
61471;SDS011;47337;54.068;12.114;2022-08-25T04:01:34;14.57;;;10.00;;
61471;SDS011;47337;54.068;12.114;2022-08-25T04:04:12;15.27;;;9.48;;
61471;SDS011;47337;54.068;12.114;2022-08-25T04:06:39;16.88;;;9.98;;
61471;SDS011;47337;54.068;12.114;2022-08-25T04:09:07;19.08;;;11.60;;
61471;SDS011;47337;54.068;12.114;2022-08-25T04:11:36;16.63;;;10.77;;
61471;SDS011;47337;54.068;12.114;2022-08-25T04:14:01;15.00;;;9.80;;
61471;SDS011;47337;54.068;12.114;2022-08-25T04:16:31;16.70;;;10.73;;
61471;SDS011;47337;54.068;12.114;2022-08-25T04:18:58;16.90;;;11.40;;
61471;SDS011;47337;54.068;12.114;2022-08-25T04:21:26;13.05;;;10.43;;
61471;SDS011;47337;54.068;12.114;2022-08-25T04:23:52;18.17;;;10.60;;
61471;SDS011;47337;54.068;12.114;2022-08-25T04:26:22;13.95;;;10.45;;
61471;SDS011;47337;54.068;12.114;2022-08-25T04:28:51;13.77;;;10.57;;
61471;SDS011;47337;54.068;12.114;2022-08-25T04:31:18;14.70;;;10.25;;
61471;SDS011;47337;54.068;12.114;2022-08-25T04:33:44;15.10;;;10.60;;
61471;SDS011;47337;54.068;12.114;2022-08-25T04:36:12;13.77;;;10.45;;
61471;SDS011;47337;54.068;12.114;2022-08-25T04:38:39;12.38;;;9.18;;
61471;SDS011;47337;54.068;12.114;2022-08-25T04:41:05;11.85;;;9.50;;
61471;SDS011;47337;54.068;12.114;2022-08-25T04:43:34;15.73;;;9.85;;
61471;SDS011;47337;54.068;12.114;2022-08-25T04:46:05;10.82;;;8.80;;
61471;SDS011;47337;54.068;12.114;2022-08-25T04:48:33;12.77;;;9.35;;
61471;SDS011;47337;54.068;12.114;2022-08-25T04:51:07;11.10;;;9.80;;
61471;SDS011;47337;54.068;12.114;2022-08-25T04:53:37;14.63;;;9.55;;
61471;SDS011;47337;54.068;12.114;2022-08-25T04:56:08;15.93;;;10.48;;
61471;SDS011;47337;54.068;12.114;2022-08-25T04:58:36;12.23;;;9.45;;
61471;SDS011;47337;54.068;12.114;2022-08-25T05:01:11;11.00;;;9.05;;
61471;SDS011;47337;54.068;12.114;2022-08-25T05:03:41;12.38;;;9.35;;
61471;SDS011;47337;54.068;12.114;2022-08-25T05:06:07;13.02;;;9.43;;
61471;SDS011;47337;54.068;12.114;2022-08-25T05:08:33;12.32;;;9.35;;
61471;SDS011;47337;54.068;12.114;2022-08-25T05:11:08;12.65;;;8.93;;
61471;SDS011;47337;54.068;12.114;2022-08-25T05:13:37;13.57;;;8.52;;
61471;SDS011;47337;54.068;12.114;2022-08-25T05:16:02;12.82;;;8.95;;
61471;SDS011;47337;54.068;12.114;2022-08-25T05:18:29;12.60;;;8.63;;
61471;SDS011;47337;54.068;12.114;2022-08-25T05:20:55;12.35;;;8.07;;
61471;SDS011;47337;54.068;12.114;2022-08-25T05:23:22;9.88;;;8.50;;
61471;SDS011;47337;54.068;12.114;2022-08-25T05:25:51;11.60;;;8.65;;
61471;SDS011;47337;54.068;12.114;2022-08-25T05:28:19;10.93;;;8.40;;
61471;SDS011;47337;54.068;12.114;2022-08-25T05:30:45;11.63;;;8.60;;
61471;SDS011;47337;54.068;12.114;2022-08-25T05:33:16;13.35;;;8.20;;
61471;SDS011;47337;54.068;12.114;2022-08-25T05:35:44;10.25;;;7.28;;
61471;SDS011;47337;54.068;12.114;2022-08-25T05:38:09;11.50;;;7.60;;
61471;SDS011;47337;54.068;12.114;2022-08-25T05:40:35;11.18;;;8.10;;
61471;SDS011;47337;54.068;12.114;2022-08-25T05:43:00;9.25;;;7.45;;
61471;SDS011;47337;54.068;12.114;2022-08-25T05:45:26;10.15;;;7.78;;
61471;SDS011;47337;54.068;12.114;2022-08-25T05:47:51;8.93;;;7.05;;
61471;SDS011;47337;54.068;12.114;2022-08-25T05:50:16;9.00;;;6.80;;
61471;SDS011;47337;54.068;12.114;2022-08-25T05:52:42;11.35;;;7.88;;
61471;SDS011;47337;54.068;12.114;2022-08-25T05:55:09;9.45;;;7.22;;
61471;SDS011;47337;54.068;12.114;2022-08-25T05:57:36;9.50;;;7.00;;
61471;SDS011;47337;54.068;12.114;2022-08-25T06:00:03;12.60;;;7.45;;
61471;SDS011;47337;54.068;12.114;2022-08-25T06:02:30;9.48;;;6.63;;
61471;SDS011;47337;54.068;12.114;2022-08-25T06:05:13;9.70;;;6.82;;
61471;SDS011;47337;54.068;12.114;2022-08-25T06:07:42;10.50;;;6.43;;
61471;SDS011;47337;54.068;12.114;2022-08-25T06:10:09;11.35;;;7.35;;
61471;SDS011;47337;54.068;12.114;2022-08-25T06:12:39;10.00;;;6.95;;
61471;SDS011;47337;54.068;12.114;2022-08-25T06:15:09;7.13;;;6.25;;
61471;SDS011;47337;54.068;12.114;2022-08-25T06:17:41;8.57;;;6.28;;
61471;SDS011;47337;54.068;12.114;2022-08-25T06:20:11;10.80;;;6.22;;
61471;SDS011;47337;54.068;12.114;2022-08-25T06:22:40;7.75;;;6.53;;
61471;SDS011;47337;54.068;12.114;2022-08-25T06:25:06;9.18;;;6.63;;
61471;SDS011;47337;54.068;12.114;2022-08-25T06:27:33;9.00;;;6.68;;
61471;SDS011;47337;54.068;12.114;2022-08-25T06:29:59;9.02;;;7.40;;
61471;SDS011;47337;54.068;12.114;2022-08-25T06:32:31;9.90;;;7.10;;
61471;SDS011;47337;54.068;12.114;2022-08-25T06:35:02;7.07;;;6.38;;
61471;SDS011;47337;54.068;12.114;2022-08-25T06:37:28;10.05;;;6.80;;
61471;SDS011;47337;54.068;12.114;2022-08-25T06:39:54;10.50;;;6.88;;
61471;SDS011;47337;54.068;12.114;2022-08-25T06:42:22;8.95;;;7.25;;
61471;SDS011;47337;54.068;12.114;2022-08-25T06:44:50;10.85;;;7.28;;
61471;SDS011;47337;54.068;12.114;2022-08-25T06:47:15;10.07;;;6.70;;
61471;SDS011;47337;54.068;12.114;2022-08-25T06:49:41;8.20;;;6.20;;
61471;SDS011;47337;54.068;12.114;2022-08-25T06:52:08;7.25;;;6.10;;
61471;SDS011;47337;54.068;12.114;2022-08-25T06:54:33;11.13;;;6.45;;
61471;SDS011;47337;54.068;12.114;2022-08-25T06:56:59;10.45;;;6.72;;
61471;SDS011;47337;54.068;12.114;2022-08-25T06:59:24;7.63;;;5.80;;
61471;SDS011;47337;54.068;12.114;2022-08-25T07:01:50;12.48;;;6.03;;
61471;SDS011;47337;54.068;12.114;2022-08-25T07:04:16;8.07;;;5.30;;
61471;SDS011;47337;54.068;12.114;2022-08-25T07:06:42;6.55;;;5.13;;
61471;SDS011;47337;54.068;12.114;2022-08-25T07:09:13;9.25;;;5.18;;
61471;SDS011;47337;54.068;12.114;2022-08-25T07:11:39;10.52;;;4.90;;
61471;SDS011;47337;54.068;12.114;2022-08-25T07:14:07;7.03;;;5.18;;
61471;SDS011;47337;54.068;12.114;2022-08-25T07:16:36;6.07;;;4.82;;
61471;SDS011;47337;54.068;12.114;2022-08-25T07:19:02;11.77;;;5.60;;
61471;SDS011;47337;54.068;12.114;2022-08-25T07:21:29;8.32;;;4.93;;
61471;SDS011;47337;54.068;12.114;2022-08-25T07:23:57;9.38;;;4.90;;
61471;SDS011;47337;54.068;12.114;2022-08-25T07:26:26;10.32;;;4.18;;
61471;SDS011;47337;54.068;12.114;2022-08-25T07:28:54;10.80;;;4.70;;
61471;SDS011;47337;54.068;12.114;2022-08-25T07:31:23;10.93;;;5.18;;
61471;SDS011;47337;54.068;12.114;2022-08-25T07:36:39;7.80;;;4.50;;
61471;SDS011;47337;54.068;12.114;2022-08-25T07:39:04;7.05;;;4.13;;
61471;SDS011;47337;54.068;12.114;2022-08-25T07:41:30;8.98;;;4.35;;
61471;SDS011;47337;54.068;12.114;2022-08-25T07:44:00;8.23;;;3.83;;
61471;SDS011;47337;54.068;12.114;2022-08-25T07:46:28;7.30;;;3.70;;
61471;SDS011;47337;54.068;12.114;2022-08-25T07:48:54;6.45;;;4.40;;
61471;SDS011;47337;54.068;12.114;2022-08-25T07:51:19;9.02;;;4.13;;
61471;SDS011;47337;54.068;12.114;2022-08-25T07:53:47;7.22;;;4.32;;
61471;SDS011;47337;54.068;12.114;2022-08-25T07:56:16;8.63;;;4.20;;
61471;SDS011;47337;54.068;12.114;2022-08-25T07:58:42;7.25;;;3.88;;
61471;SDS011;47337;54.068;12.114;2022-08-25T08:01:14;10.77;;;4.15;;
61471;SDS011;47337;54.068;12.114;2022-08-25T08:03:45;7.18;;;4.13;;
61471;SDS011;47337;54.068;12.114;2022-08-25T08:06:15;7.65;;;3.70;;
61471;SDS011;47337;54.068;12.114;2022-08-25T08:08:43;7.75;;;3.85;;
61471;SDS011;47337;54.068;12.114;2022-08-25T08:11:16;7.57;;;3.63;;
61471;SDS011;47337;54.068;12.114;2022-08-25T08:13:45;7.00;;;3.60;;
61471;SDS011;47337;54.068;12.114;2022-08-25T08:16:11;4.70;;;3.15;;
61471;SDS011;47337;54.068;12.114;2022-08-25T08:18:40;5.97;;;3.60;;
61471;SDS011;47337;54.068;12.114;2022-08-25T08:21:11;8.27;;;3.33;;
61471;SDS011;47337;54.068;12.114;2022-08-25T08:23:40;7.78;;;3.25;;
61471;SDS011;47337;54.068;12.114;2022-08-25T08:26:06;10.57;;;3.10;;
61471;SDS011;47337;54.068;12.114;2022-08-25T08:28:31;4.13;;;2.83;;
61471;SDS011;47337;54.068;12.114;2022-08-25T08:30:57;7.40;;;3.20;;
61471;SDS011;47337;54.068;12.114;2022-08-25T08:33:24;6.07;;;3.28;;
61471;SDS011;47337;54.068;12.114;2022-08-25T08:36:09;5.85;;;3.33;;
61471;SDS011;47337;54.068;12.114;2022-08-25T08:38:36;9.20;;;3.58;;
61471;SDS011;47337;54.068;12.114;2022-08-25T08:44:22;7.20;;;3.05;;
61471;SDS011;47337;54.068;12.114;2022-08-25T08:47:15;5.80;;;2.90;;
61471;SDS011;47337;54.068;12.114;2022-08-25T08:55:29;6.35;;;3.28;;
61471;SDS011;47337;54.068;12.114;2022-08-25T08:58:02;6.45;;;3.35;;
61471;SDS011;47337;54.068;12.114;2022-08-25T09:00:35;7.30;;;3.40;;
61471;SDS011;47337;54.068;12.114;2022-08-25T09:03:09;8.75;;;3.40;;
61471;SDS011;47337;54.068;12.114;2022-08-25T09:05:45;6.65;;;3.33;;
61471;SDS011;47337;54.068;12.114;2022-08-25T09:08:14;6.82;;;3.00;;
61471;SDS011;47337;54.068;12.114;2022-08-25T09:10:57;6.22;;;3.30;;
61471;SDS011;47337;54.068;12.114;2022-08-25T09:13:35;10.95;;;4.28;;
61471;SDS011;47337;54.068;12.114;2022-08-25T09:24:56;6.90;;;3.15;;
61471;SDS011;47337;54.068;12.114;2022-08-25T09:33:31;8.57;;;2.90;;
61471;SDS011;47337;54.068;12.114;2022-08-25T09:35:58;6.60;;;3.53;;
61471;SDS011;47337;54.068;12.114;2022-08-25T09:38:24;6.28;;;3.63;;
61471;SDS011;47337;54.068;12.114;2022-08-25T09:40:53;4.57;;;2.40;;
61471;SDS011;47337;54.068;12.114;2022-08-25T09:43:39;5.70;;;2.67;;
61471;SDS011;47337;54.068;12.114;2022-08-25T09:46:39;6.88;;;2.88;;
61471;SDS011;47337;54.068;12.114;2022-08-25T09:49:09;4.95;;;3.00;;
61471;SDS011;47337;54.068;12.114;2022-08-25T09:51:38;7.07;;;3.03;;
61471;SDS011;47337;54.068;12.114;2022-08-25T09:56:55;6.57;;;2.95;;
61471;SDS011;47337;54.068;12.114;2022-08-25T09:59:30;4.93;;;2.80;;
61471;SDS011;47337;54.068;12.114;2022-08-25T10:02:02;6.78;;;3.00;;
61471;SDS011;47337;54.068;12.114;2022-08-25T10:09:54;4.97;;;2.80;;
61471;SDS011;47337;54.068;12.114;2022-08-25T10:12:28;6.55;;;2.78;;
61471;SDS011;47337;54.068;12.114;2022-08-25T10:14:57;7.45;;;3.08;;
61471;SDS011;47337;54.068;12.114;2022-08-25T10:17:24;6.05;;;3.05;;
61471;SDS011;47337;54.068;12.114;2022-08-25T10:20:11;6.85;;;3.45;;
61471;SDS011;47337;54.068;12.114;2022-08-25T10:22:38;5.38;;;2.95;;
61471;SDS011;47337;54.068;12.114;2022-08-25T10:25:06;7.55;;;3.25;;
61471;SDS011;47337;54.068;12.114;2022-08-25T10:35:24;6.60;;;3.03;;
61471;SDS011;47337;54.068;12.114;2022-08-25T10:43:34;5.35;;;3.30;;
61471;SDS011;47337;54.068;12.114;2022-08-25T10:46:10;3.40;;;3.10;;
61471;SDS011;47337;54.068;12.114;2022-08-25T10:49:06;7.47;;;3.10;;
61471;SDS011;47337;54.068;12.114;2022-08-25T10:52:06;4.95;;;2.97;;
61471;SDS011;47337;54.068;12.114;2022-08-25T11:00:17;5.85;;;3.03;;
61471;SDS011;47337;54.068;12.114;2022-08-25T11:02:59;6.80;;;3.35;;
61471;SDS011;47337;54.068;12.114;2022-08-25T11:05:46;7.68;;;3.30;;
61471;SDS011;47337;54.068;12.114;2022-08-25T11:11:06;5.00;;;3.10;;
61471;SDS011;47337;54.068;12.114;2022-08-25T11:13:45;4.15;;;2.90;;
61471;SDS011;47337;54.068;12.114;2022-08-25T11:16:15;6.63;;;3.20;;
61471;SDS011;47337;54.068;12.114;2022-08-25T11:19:28;6.68;;;3.10;;
61471;SDS011;47337;54.068;12.114;2022-08-25T11:21:46;5.78;;;2.95;;
61471;SDS011;47337;54.068;12.114;2022-08-25T11:26:45;6.90;;;2.92;;
61471;SDS011;47337;54.068;12.114;2022-08-25T11:29:18;6.60;;;3.08;;
61471;SDS011;47337;54.068;12.114;2022-08-25T11:31:49;7.80;;;2.70;;
61471;SDS011;47337;54.068;12.114;2022-08-25T11:34:18;6.22;;;2.88;;
61471;SDS011;47337;54.068;12.114;2022-08-25T11:36:50;6.47;;;2.90;;
61471;SDS011;47337;54.068;12.114;2022-08-25T11:44:45;6.28;;;3.05;;
61471;SDS011;47337;54.068;12.114;2022-08-25T11:57:35;6.00;;;2.40;;
61471;SDS011;47337;54.068;12.114;2022-08-25T12:02:59;5.45;;;2.80;;
61471;SDS011;47337;54.068;12.114;2022-08-25T12:21:55;7.38;;;3.10;;
61471;SDS011;47337;54.068;12.114;2022-08-25T12:27:31;6.43;;;3.10;;
61471;SDS011;47337;54.068;12.114;2022-08-25T12:43:12;6.78;;;3.13;;
61471;SDS011;47337;54.068;12.114;2022-08-25T12:45:54;9.60;;;3.15;;
61471;SDS011;47337;54.068;12.114;2022-08-25T12:51:20;5.82;;;2.95;;
61471;SDS011;47337;54.068;12.114;2022-08-25T12:56:42;9.40;;;3.10;;
61471;SDS011;47337;54.068;12.114;2022-08-25T13:01:57;4.35;;;2.88;;
61471;SDS011;47337;54.068;12.114;2022-08-25T13:15:27;6.95;;;3.00;;
61471;SDS011;47337;54.068;12.114;2022-08-25T13:18:18;6.35;;;3.03;;
61471;SDS011;47337;54.068;12.114;2022-08-25T13:20:52;6.22;;;3.33;;
61471;SDS011;47337;54.068;12.114;2022-08-25T13:23:26;8.98;;;3.28;;
61471;SDS011;47337;54.068;12.114;2022-08-25T13:25:53;7.72;;;2.70;;
61471;SDS011;47337;54.068;12.114;2022-08-25T13:28:25;5.53;;;2.90;;
61471;SDS011;47337;54.068;12.114;2022-08-25T13:31:04;10.52;;;3.67;;
61471;SDS011;47337;54.068;12.114;2022-08-25T13:33:48;4.80;;;3.25;;
61471;SDS011;47337;54.068;12.114;2022-08-25T13:36:16;6.35;;;3.03;;
61471;SDS011;47337;54.068;12.114;2022-08-25T13:39:09;7.63;;;3.00;;
61471;SDS011;47337;54.068;12.114;2022-08-25T13:41:55;5.03;;;3.20;;
61471;SDS011;47337;54.068;12.114;2022-08-25T13:44:24;6.72;;;3.20;;
61471;SDS011;47337;54.068;12.114;2022-08-25T13:47:08;4.00;;;2.88;;
61471;SDS011;47337;54.068;12.114;2022-08-25T13:49:42;7.90;;;3.13;;
61471;SDS011;47337;54.068;12.114;2022-08-25T13:52:30;6.77;;;3.37;;
61471;SDS011;47337;54.068;12.114;2022-08-25T13:54:58;6.32;;;2.88;;
61471;SDS011;47337;54.068;12.114;2022-08-25T13:57:27;6.45;;;3.20;;
61471;SDS011;47337;54.068;12.114;2022-08-25T14:00:03;5.78;;;3.13;;
61471;SDS011;47337;54.068;12.114;2022-08-25T14:02:46;5.68;;;3.15;;
61471;SDS011;47337;54.068;12.114;2022-08-25T14:05:14;7.97;;;3.63;;
61471;SDS011;47337;54.068;12.114;2022-08-25T14:07:51;6.20;;;2.75;;
61471;SDS011;47337;54.068;12.114;2022-08-25T14:10:33;9.35;;;3.20;;
61471;SDS011;47337;54.068;12.114;2022-08-25T14:13:10;9.73;;;3.55;;
61471;SDS011;47337;54.068;12.114;2022-08-25T14:15:40;6.13;;;3.38;;
61471;SDS011;47337;54.068;12.114;2022-08-25T14:18:19;8.00;;;4.22;;
61471;SDS011;47337;54.068;12.114;2022-08-25T14:20:47;8.45;;;3.38;;
61471;SDS011;47337;54.068;12.114;2022-08-25T14:23:16;6.13;;;3.35;;
61471;SDS011;47337;54.068;12.114;2022-08-25T14:25:45;5.40;;;3.10;;
61471;SDS011;47337;54.068;12.114;2022-08-25T14:28:13;8.15;;;3.40;;
61471;SDS011;47337;54.068;12.114;2022-08-25T14:30:53;11.75;;;3.47;;
61471;SDS011;47337;54.068;12.114;2022-08-25T14:33:24;8.05;;;3.47;;
61471;SDS011;47337;54.068;12.114;2022-08-25T14:35:53;7.43;;;2.83;;
61471;SDS011;47337;54.068;12.114;2022-08-25T14:38:21;6.28;;;3.58;;
61471;SDS011;47337;54.068;12.114;2022-08-25T14:40:47;6.57;;;3.05;;
61471;SDS011;47337;54.068;12.114;2022-08-25T14:43:13;6.13;;;3.10;;
61471;SDS011;47337;54.068;12.114;2022-08-25T14:45:40;10.13;;;3.53;;
61471;SDS011;47337;54.068;12.114;2022-08-25T14:48:09;6.82;;;3.22;;
61471;SDS011;47337;54.068;12.114;2022-08-25T14:50:41;8.95;;;3.95;;
61471;SDS011;47337;54.068;12.114;2022-08-25T14:53:06;7.45;;;3.47;;
61471;SDS011;47337;54.068;12.114;2022-08-25T14:55:33;7.68;;;3.60;;
61471;SDS011;47337;54.068;12.114;2022-08-25T14:57:59;7.50;;;2.92;;
61471;SDS011;47337;54.068;12.114;2022-08-25T15:00:24;8.52;;;3.90;;
61471;SDS011;47337;54.068;12.114;2022-08-25T15:02:50;7.75;;;3.28;;
61471;SDS011;47337;54.068;12.114;2022-08-25T15:05:16;8.98;;;3.15;;
61471;SDS011;47337;54.068;12.114;2022-08-25T15:07:48;4.22;;;3.22;;
61471;SDS011;47337;54.068;12.114;2022-08-25T15:10:34;5.38;;;3.13;;
61471;SDS011;47337;54.068;12.114;2022-08-25T15:13:00;7.80;;;3.35;;
61471;SDS011;47337;54.068;12.114;2022-08-25T15:15:25;6.32;;;3.28;;
61471;SDS011;47337;54.068;12.114;2022-08-25T15:17:52;6.55;;;2.92;;
61471;SDS011;47337;54.068;12.114;2022-08-25T15:20:18;5.28;;;3.05;;
61471;SDS011;47337;54.068;12.114;2022-08-25T15:22:44;6.50;;;2.97;;
61471;SDS011;47337;54.068;12.114;2022-08-25T15:25:11;7.45;;;3.10;;
61471;SDS011;47337;54.068;12.114;2022-08-25T15:27:37;7.03;;;3.58;;
61471;SDS011;47337;54.068;12.114;2022-08-25T15:30:03;9.20;;;3.58;;
61471;SDS011;47337;54.068;12.114;2022-08-25T15:32:29;9.02;;;3.22;;
61471;SDS011;47337;54.068;12.114;2022-08-25T15:34:57;8.07;;;2.97;;
61471;SDS011;47337;54.068;12.114;2022-08-25T15:37:23;9.02;;;3.40;;
61471;SDS011;47337;54.068;12.114;2022-08-25T15:39:48;11.65;;;3.22;;
61471;SDS011;47337;54.068;12.114;2022-08-25T15:42:14;14.90;;;3.42;;
61471;SDS011;47337;54.068;12.114;2022-08-25T15:44:40;10.65;;;3.75;;
61471;SDS011;47337;54.068;12.114;2022-08-25T15:47:08;9.05;;;3.40;;
61471;SDS011;47337;54.068;12.114;2022-08-25T15:49:34;5.68;;;2.83;;
61471;SDS011;47337;54.068;12.114;2022-08-25T15:52:00;8.35;;;3.08;;
61471;SDS011;47337;54.068;12.114;2022-08-25T15:54:26;12.65;;;3.80;;
61471;SDS011;47337;54.068;12.114;2022-08-25T15:56:54;5.88;;;3.40;;
61471;SDS011;47337;54.068;12.114;2022-08-25T15:59:20;9.90;;;3.63;;
61471;SDS011;47337;54.068;12.114;2022-08-25T16:01:46;8.57;;;3.05;;
61471;SDS011;47337;54.068;12.114;2022-08-25T16:04:12;7.72;;;3.50;;
61471;SDS011;47337;54.068;12.114;2022-08-25T16:06:40;7.90;;;3.10;;
61471;SDS011;47337;54.068;12.114;2022-08-25T16:09:05;6.10;;;2.92;;
61471;SDS011;47337;54.068;12.114;2022-08-25T16:11:31;9.18;;;3.25;;
61471;SDS011;47337;54.068;12.114;2022-08-25T16:13:59;7.72;;;3.33;;
61471;SDS011;47337;54.068;12.114;2022-08-25T16:16:27;10.52;;;4.40;;
61471;SDS011;47337;54.068;12.114;2022-08-25T16:18:54;7.05;;;2.88;;
61471;SDS011;47337;54.068;12.114;2022-08-25T16:21:24;5.07;;;3.05;;
61471;SDS011;47337;54.068;12.114;2022-08-25T16:23:54;9.77;;;5.22;;
61471;SDS011;47337;54.068;12.114;2022-08-25T16:26:23;13.87;;;7.83;;
61471;SDS011;47337;54.068;12.114;2022-08-25T16:28:53;5.10;;;4.15;;
61471;SDS011;47337;54.068;12.114;2022-08-25T16:31:20;8.00;;;3.88;;
61471;SDS011;47337;54.068;12.114;2022-08-25T16:33:46;6.88;;;3.55;;
61471;SDS011;47337;54.068;12.114;2022-08-25T16:36:17;9.90;;;3.88;;
61471;SDS011;47337;54.068;12.114;2022-08-25T16:38:44;8.02;;;3.55;;
61471;SDS011;47337;54.068;12.114;2022-08-25T16:41:12;5.95;;;3.53;;
61471;SDS011;47337;54.068;12.114;2022-08-25T16:43:42;8.73;;;3.53;;
61471;SDS011;47337;54.068;12.114;2022-08-25T16:46:08;11.93;;;4.03;;
61471;SDS011;47337;54.068;12.114;2022-08-25T16:48:36;14.80;;;6.57;;
61471;SDS011;47337;54.068;12.114;2022-08-25T16:51:05;9.35;;;4.10;;
61471;SDS011;47337;54.068;12.114;2022-08-25T16:53:35;5.32;;;3.50;;